Time;durP1;ratioP1;P1;durP2;ratioP2;P2;SDS_P1;SDS_P2;PMS_P1;PMS_P2;Temp;Humidity;BMP_temperature;BMP_pressure;BME280_temperature;BME280_humidity;BME280_pressure;Samples;Min_cycle;Max_cycle;Signal;HPM_P1;HPM_P2
2023/04/25 00:02:32;;;;;;;11.25;4.05;;;;;;;5.98;100.00;99715.03;6119735;28;20047;-91
2023/04/25 00:05:36;;;;;;;14.02;5.07;;;;;;;6.04;100.00;99714.63;6118291;28;20032;-90
2023/04/25 00:08:38;;;;;;;9.13;4.53;;;;;;;6.02;100.00;99720.78;6119380;28;20123;-90
2023/04/25 00:11:40;;;;;;;9.50;4.70;;;;;;;5.98;100.00;99719.38;6122064;28;20123;-90
2023/04/25 00:14:42;;;;;;;12.18;3.80;;;;;;;5.98;100.00;99715.03;6090625;28;20154;-90
2023/04/25 00:17:45;;;;;;;9.27;4.35;;;;;;;6.05;100.00;99718.00;6118836;28;20043;-89
2023/04/25 00:20:48;;;;;;;9.35;3.42;;;;;;;6.02;100.00;99724.19;6115290;28;20044;-90
2023/04/25 00:23:50;;;;;;;11.40;4.75;;;;;;;6.10;100.00;99720.22;6116506;28;20051;-89
2023/04/25 00:26:52;;;;;;;9.73;4.72;;;;;;;6.24;100.00;99730.31;6121457;28;20046;-90
2023/04/25 00:29:54;;;;;;;11.88;4.35;;;;;;;6.23;100.00;99719.19;6100030;28;20048;-89
2023/04/25 00:32:55;;;;;;;13.70;4.90;;;;;;;6.20;100.00;99721.19;6097347;28;20079;-89
2023/04/25 00:35:57;;;;;;;10.77;4.88;;;;;;;6.20;100.00;99709.16;6101728;28;20686;-89
2023/04/25 00:38:59;;;;;;;11.25;4.63;;;;;;;6.06;100.00;99719.63;6134117;28;20530;-90
2023/04/25 00:42:02;;;;;;;9.75;4.45;;;;;;;6.06;100.00;99714.47;6100759;28;20035;-90
2023/04/25 00:45:07;;;;;;;12.48;5.00;;;;;;;6.02;100.00;99711.34;6118536;28;20091;-89
2023/04/25 00:48:09;;;;;;;10.57;4.50;;;;;;;6.11;100.00;99727.00;6086259;28;20398;-88
2023/04/25 00:51:21;;;;;;;10.30;4.45;;;;;;;6.01;100.00;99719.13;6102262;28;20439;-89
2023/04/25 00:54:23;;;;;;;14.00;5.22;;;;;;;5.98;100.00;99721.94;6123743;28;20051;-90
2023/04/25 00:57:25;;;;;;;12.98;5.20;;;;;;;6.07;100.00;99708.44;6110476;28;20146;-90
2023/04/25 01:00:27;;;;;;;10.90;4.90;;;;;;;6.12;100.00;99721.75;6130330;28;20062;-90
2023/04/25 01:03:35;;;;;;;10.40;5.15;;;;;;;6.16;100.00;99720.59;6123164;28;20510;-89
2023/04/25 01:06:37;;;;;;;11.32;4.30;;;;;;;6.13;100.00;99722.56;6106374;28;20133;-90
2023/04/25 01:09:39;;;;;;;13.88;5.63;;;;;;;6.14;100.00;99717.31;6120260;28;20522;-90
2023/04/25 01:12:41;;;;;;;12.00;5.22;;;;;;;6.23;100.00;99726.91;6110698;28;20375;-89
2023/04/25 01:15:43;;;;;;;11.75;5.35;;;;;;;6.23;100.00;99714.06;6104590;28;20059;-90
2023/04/25 01:18:46;;;;;;;12.52;4.95;;;;;;;6.28;100.00;99715.47;6136336;28;20051;-90
2023/04/25 01:21:48;;;;;;;11.73;5.05;;;;;;;6.31;100.00;99715.25;6114070;28;20387;-90
2023/04/25 01:24:50;;;;;;;10.93;4.90;;;;;;;6.40;100.00;99717.13;6109081;28;20411;-90
2023/04/25 01:27:52;;;;;;;11.07;5.20;;;;;;;6.37;100.00;99717.38;6111250;28;20399;-90
2023/04/25 01:30:54;;;;;;;12.55;5.78;;;;;;;6.36;100.00;99715.72;6115357;28;20048;-90
2023/04/25 01:33:57;;;;;;;11.50;5.50;;;;;;;6.34;100.00;99715.84;6106787;28;20459;-89
2023/04/25 01:37:01;;;;;;;19.77;6.47;;;;;;;6.23;100.00;99719.19;6124693;28;20071;-90
2023/04/25 01:40:05;;;;;;;11.32;5.93;;;;;;;6.32;100.00;99706.63;6086872;28;20043;-90
2023/04/25 01:43:10;;;;;;;12.23;5.88;;;;;;;6.37;100.00;99713.03;6116154;28;20048;-90
2023/04/25 01:46:13;;;;;;;17.40;5.97;;;;;;;6.34;100.00;99712.47;6115677;28;20118;-90
2023/04/25 01:49:15;;;;;;;13.88;7.18;;;;;;;6.34;100.00;99713.28;6118805;28;20367;-89
2023/04/25 01:52:18;;;;;;;14.05;5.85;;;;;;;6.28;100.00;99715.47;6129496;28;20458;-90
2023/04/25 01:55:21;;;;;;;9.10;5.75;;;;;;;6.32;100.00;99716.91;6118891;28;20047;-89
2023/04/25 01:58:33;;;;;;;11.13;5.82;;;;;;;6.26;100.00;99728.47;6110703;28;20063;-89
2023/04/25 02:01:43;;;;;;;11.20;5.50;;;;;;;6.31;100.00;99738.38;6118685;28;20222;-90
2023/04/25 02:04:54;;;;;;;14.10;5.50;;;;;;;6.27;100.00;99734.41;6115163;28;20098;-89
2023/04/25 02:07:57;;;;;;;9.95;5.43;;;;;;;6.30;100.00;99736.75;6108974;28;20066;-89
2023/04/25 02:11:00;;;;;;;9.57;4.55;;;;;;;6.27;100.00;99739.56;6129068;28;20142;-89
2023/04/25 02:14:09;;;;;;;12.10;5.32;;;;;;;6.23;100.00;99747.47;6094189;28;20564;-90
2023/04/25 02:17:17;;;;;;;9.93;5.32;;;;;;;6.17;100.00;99753.06;6118355;28;20146;-90
2023/04/25 02:20:24;;;;;;;10.57;5.47;;;;;;;6.10;100.00;99761.34;6106287;28;20082;-90
2023/04/25 02:23:26;;;;;;;11.10;4.90;;;;;;;6.01;100.00;99766.22;6107266;28;20515;-91
2023/04/25 02:26:28;;;;;;;9.82;4.47;;;;;;;5.96;100.00;99782.88;6110097;28;20122;-90
2023/04/25 02:29:30;;;;;;;10.07;4.47;;;;;;;5.92;100.00;99789.16;6105051;28;20052;-91
2023/04/25 02:32:34;;;;;;;7.82;3.90;;;;;;;5.79;100.00;99781.50;6107516;29;20146;-92
2023/04/25 02:35:36;;;;;;;10.73;3.80;;;;;;;5.62;100.00;99795.53;6119289;28;20054;-93
2023/04/25 02:38:38;;;;;;;9.38;3.40;;;;;;;5.54;100.00;99788.34;6129472;28;20093;-92
2023/04/25 02:41:40;;;;;;;10.90;4.00;;;;;;;5.44;100.00;99784.78;6135445;28;20032;-91
2023/04/25 02:44:42;;;;;;;13.00;4.00;;;;;;;5.38;100.00;99790.34;6119375;28;20051;-92
2023/04/25 02:47:44;;;;;;;10.23;3.55;;;;;;;5.35;100.00;99786.25;6120924;28;20055;-91
2023/04/25 02:50:46;;;;;;;11.63;3.30;;;;;;;5.30;100.00;99778.03;6111909;28;20153;-91
2023/04/25 02:53:49;;;;;;;10.43;3.63;;;;;;;5.38;100.00;99786.03;6103476;28;20220;-91
2023/04/25 02:56:52;;;;;;;13.23;3.70;;;;;;;5.36;100.00;99777.59;6118670;28;20105;-91
2023/04/25 03:00:00;;;;;;;9.77;3.58;;;;;;;5.30;100.00;99784.94;6112108;28;20036;-92
2023/04/25 03:03:02;;;;;;;10.52;4.18;;;;;;;5.34;100.00;99784.63;6112761;28;20043;-91
2023/04/25 03:06:04;;;;;;;13.70;4.20;;;;;;;5.34;100.00;99792.31;6125753;28;20044;-91
2023/04/25 03:09:07;;;;;;;12.70;4.38;;;;;;;5.29;100.00;99789.25;6111353;28;20090;-90
2023/04/25 03:12:10;;;;;;;13.88;4.07;;;;;;;5.38;100.00;99787.78;6115950;28;20199;-91
2023/04/25 03:15:11;;;;;;;8.60;3.65;;;;;;;5.35;100.00;99793.13;6098320;28;20139;-90
2023/04/25 03:18:13;;;;;;;12.73;4.10;;;;;;;5.39;100.00;99787.69;6116441;28;20040;-90
2023/04/25 03:21:15;;;;;;;8.68;3.97;;;;;;;5.46;100.00;99792.38;6109916;28;20407;-90
2023/04/25 03:24:17;;;;;;;16.85;5.03;;;;;;;5.50;100.00;99798.94;6126972;28;20326;-90
2023/04/25 03:27:19;;;;;;;9.77;4.38;;;;;;;5.46;100.00;99793.19;6130118;28;20157;-90
2023/04/25 03:30:21;;;;;;;8.93;4.57;;;;;;;5.49;100.00;99803.25;6111867;28;20361;-90
2023/04/25 03:33:23;;;;;;;17.83;5.00;;;;;;;5.56;100.00;99814.72;6102985;28;20763;-90
2023/04/25 03:36:25;;;;;;;11.30;4.93;;;;;;;5.54;100.00;99815.75;6115544;28;20079;-89
2023/04/25 03:39:26;;;;;;;12.43;4.47;;;;;;;5.53;100.00;99822.63;6106729;28;20055;-90
2023/04/25 03:42:30;;;;;;;10.73;4.13;;;;;;;5.57;100.00;99828.41;6111764;28;20123;-89
2023/04/25 03:45:32;;;;;;;18.23;4.60;;;;;;;5.64;100.00;99827.03;6088288;28;20503;-89
2023/04/25 03:48:33;;;;;;;13.43;4.65;;;;;;;5.57;100.00;99820.69;6117628;28;20668;-89
2023/04/25 03:51:36;;;;;;;13.02;3.90;;;;;;;5.47;100.00;99832.53;6105360;28;20052;-89
2023/04/25 03:54:38;;;;;;;9.82;4.00;;;;;;;5.44;100.00;99830.16;6102350;28;20074;-89
2023/04/25 03:57:50;;;;;;;21.17;4.75;;;;;;;5.43;100.00;99829.34;6100726;28;20059;-89
2023/04/25 04:00:52;;;;;;;12.25;3.63;;;;;;;5.49;100.00;99825.53;6111546;28;20047;-89
2023/04/25 04:03:54;;;;;;;13.40;4.05;;;;;;;5.45;100.00;99834.38;6120519;28;20383;-89
2023/04/25 04:06:58;;;;;;;12.80;4.43;;;;;;;5.34;100.00;99830.81;6113351;28;20054;-89
2023/04/25 04:10:06;;;;;;;9.73;3.58;;;;;;;5.36;100.00;99841.75;6103193;28;20070;-89
2023/04/25 04:13:11;;;;;;;9.70;4.05;;;;;;;5.32;100.00;99840.34;6104497;28;20530;-89
2023/04/25 04:16:13;;;;;;;14.90;4.10;;;;;;;5.37;100.00;99843.41;6121832;28;20052;-89
2023/04/25 04:19:15;;;;;;;19.27;4.18;;;;;;;5.49;100.00;99856.31;6106889;28;20162;-89
2023/04/25 04:22:24;;;;;;;11.65;4.05;;;;;;;5.37;100.00;99851.13;6102894;28;20059;-89
2023/04/25 04:25:30;;;;;;;18.63;4.28;;;;;;;5.39;100.00;99859.53;6104174;28;20059;-89
2023/04/25 04:29:11;;;;;;;12.45;3.20;;;;;;;5.39;100.00;99858.69;6115978;29;20518;-89
2023/04/25 04:32:18;;;;;;;14.27;3.92;;;;;;;5.37;100.00;99858.00;6116218;29;20079;-89
2023/04/25 04:35:23;;;;;;;14.73;3.70;;;;;;;5.37;100.00;99863.13;6101334;29;20066;-89
2023/04/25 04:38:26;;;;;;;16.08;3.75;;;;;;;5.37;100.00;99870.84;6116067;29;20051;-89
2023/04/25 04:41:30;;;;;;;14.13;4.28;;;;;;;5.42;100.00;99878.22;6121908;29;20066;-89
2023/04/25 04:44:52;;;;;;;13.40;3.70;;;;;;;5.54;100.00;99877.34;6117017;29;20510;-88
2023/04/25 04:48:13;;;;;;;11.37;3.57;;;;;;;5.58;100.00;99873.66;6083522;29;20462;-89
2023/04/25 04:51:34;;;;;;;15.43;3.67;;;;;;;5.66;100.00;99871.38;6112882;29;20059;-89
2023/04/25 04:54:43;;;;;;;13.40;3.75;;;;;;;5.67;100.00;99888.44;6110673;29;20143;-88
2023/04/25 04:57:50;;;;;;;10.52;3.88;;;;;;;5.69;100.00;99881.47;6099712;29;20048;-89
2023/04/25 05:01:10;;;;;;;17.25;4.50;;;;;;;5.67;100.00;99890.19;6123702;28;20060;-89
2023/04/25 05:04:35;;;;;;;15.65;4.15;;;;;;;5.71;100.00;99889.03;6112439;28;20471;-89
2023/04/25 05:07:57;;;;;;;18.10;4.50;;;;;;;5.73;100.00;99892.34;6121936;28;20518;-88
2023/04/25 05:11:16;;;;;;;20.02;4.07;;;;;;;5.75;100.00;99895.63;6111875;28;20042;-89
2023/04/25 05:14:43;;;;;;;19.02;4.32;;;;;;;5.71;100.00;99902.69;6113154;28;20048;-89
2023/04/25 05:18:15;;;;;;;17.58;3.78;;;;;;;5.73;100.00;99895.72;6085366;29;20104;-89
2023/04/25 05:21:35;;;;;;;23.63;5.33;;;;;;;5.69;100.00;99902.00;6091561;29;20056;-89
2023/04/25 05:25:03;;;;;;;15.73;3.45;;;;;;;5.76;100.00;99915.22;6087710;29;20060;-89
2023/04/25 05:28:24;;;;;;;24.13;4.07;;;;;;;5.90;100.00;99916.84;6089288;29;20147;-88
2023/04/25 05:31:45;;;;;;;14.80;3.95;;;;;;;5.91;100.00;99924.44;6075703;29;20052;-88
2023/04/25 05:34:52;;;;;;;12.10;3.40;;;;;;;6.00;100.00;99926.41;6090474;29;20056;-89
2023/04/25 05:38:10;;;;;;;16.80;3.92;;;;;;;6.09;100.00;99935.22;6056567;29;20072;-89
2023/04/25 05:41:30;;;;;;;12.27;3.55;;;;;;;6.21;100.00;99934.38;6066493;29;21074;-88
2023/04/25 05:44:36;;;;;;;16.98;4.03;;;;;;;6.25;100.00;99940.91;6090795;29;20052;-88
2023/04/25 05:47:51;;;;;;;13.43;3.13;;;;;;;6.28;100.00;99944.22;6090670;29;20059;-89
2023/04/25 05:50:58;;;;;;;12.98;3.28;;;;;;;6.38;100.00;99946.00;6074404;29;20111;-89
2023/04/25 05:54:18;;;;;;;13.43;4.07;;;;;;;6.33;100.00;99948.09;6105008;28;20067;-89
2023/04/25 05:57:25;;;;;;;11.55;3.22;;;;;;;6.36;100.00;99954.75;6118206;28;20051;-89
2023/04/25 06:00:29;;;;;;;13.32;3.28;;;;;;;6.41;100.00;99950.97;6108490;29;20194;-89
2023/04/25 06:03:31;;;;;;;17.00;3.33;;;;;;;6.41;100.00;99961.25;6132480;28;20142;-89
2023/04/25 06:06:33;;;;;;;16.55;3.28;;;;;;;6.43;100.00;99967.09;6104315;28;20048;-89
2023/04/25 06:09:35;;;;;;;19.30;3.60;;;;;;;6.39;100.00;99975.94;6112583;28;20051;-89
2023/04/25 06:12:38;;;;;;;19.10;4.55;;;;;;;6.44;100.00;99970.50;6109594;28;20056;-89
2023/04/25 06:15:40;;;;;;;16.60;3.97;;;;;;;6.56;100.00;99979.06;6108066;28;20410;-89
2023/04/25 06:18:42;;;;;;;19.48;4.05;;;;;;;6.63;100.00;99982.84;6118866;28;20055;-89
2023/04/25 06:21:44;;;;;;;16.25;3.33;;;;;;;6.61;100.00;99979.59;6125024;28;20044;-89
2023/04/25 06:24:46;;;;;;;13.88;3.35;;;;;;;6.69;100.00;99985.81;6118160;28;20142;-89
2023/04/25 06:27:48;;;;;;;11.48;3.40;;;;;;;6.84;100.00;99989.03;6107328;28;20557;-89
2023/04/25 06:30:51;;;;;;;17.38;4.00;;;;;;;6.81;100.00;99996.16;6113380;28;20044;-89
2023/04/25 06:33:54;;;;;;;19.17;2.97;;;;;;;6.69;100.00;99990.94;6131882;28;20090;-89
2023/04/25 06:36:59;;;;;;;17.98;3.22;;;;;;;6.64;100.00;99985.31;6104164;28;20056;-89
2023/04/25 06:40:02;;;;;;;13.13;3.08;;;;;;;6.63;100.00;99990.56;6107864;28;20517;-89
2023/04/25 06:43:04;;;;;;;13.15;3.20;;;;;;;6.61;100.00;99989.88;6109709;28;20046;-89
2023/04/25 06:46:18;;;;;;;15.43;2.72;;;;;;;6.49;100.00;99999.25;6112738;28;20177;-88
2023/04/25 06:49:22;;;;;;;11.07;2.97;;;;;;;6.45;100.00;100003.78;6111938;28;20730;-88
2023/04/25 06:52:24;;;;;;;15.88;4.63;;;;;;;6.42;100.00;100000.63;6110254;28;20047;-88
2023/04/25 06:55:28;;;;;;;13.85;3.90;;;;;;;6.59;100.00;99997.69;6105112;28;20047;-89
2023/04/25 06:58:41;;;;;;;8.65;2.95;;;;;;;6.90;100.00;100000.63;6113829;28;20122;-89
2023/04/25 07:02:03;;;;;;;12.73;3.22;;;;;;;7.01;100.00;100005.81;6134452;28;20048;-89
2023/04/25 07:05:05;;;;;;;11.07;2.85;;;;;;;7.07;100.00;100018.22;6108768;28;20178;-88
2023/04/25 07:08:07;;;;;;;18.02;3.72;;;;;;;7.22;100.00;100013.72;6106123;28;20058;-88
2023/04/25 07:11:09;;;;;;;9.18;3.22;;;;;;;7.36;100.00;100010.16;6113631;28;20070;-89
2023/04/25 07:14:11;;;;;;;8.95;2.83;;;;;;;7.45;100.00;100014.63;6108740;28;20135;-89
2023/04/25 07:17:15;;;;;;;7.80;3.30;;;;;;;7.71;100.00;100015.25;6109884;28;20047;-89
2023/04/25 07:20:17;;;;;;;10.82;2.72;;;;;;;7.88;100.00;100039.75;6108268;28;20576;-88
2023/04/25 07:23:19;;;;;;;15.40;3.17;;;;;;;7.75;100.00;100021.81;6093729;28;20055;-90
2023/04/25 07:26:22;;;;;;;9.38;2.70;;;;;;;7.67;100.00;100018.97;6116709;28;20086;-90
2023/04/25 07:29:43;;;;;;;18.90;2.78;;;;;;;7.71;100.00;100024.72;6128902;28;20151;-90
2023/04/25 07:32:45;;;;;;;6.55;2.33;;;;;;;7.75;100.00;100028.69;6110351;28;20071;-90
2023/04/25 07:35:47;;;;;;;10.35;2.55;;;;;;;7.74;100.00;100037.38;6109190;28;20047;-90
2023/04/25 07:38:51;;;;;;;5.93;2.28;;;;;;;7.70;100.00;100043.69;6108742;28;20520;-90
2023/04/25 07:41:53;;;;;;;9.52;2.50;;;;;;;7.72;100.00;100044.41;6114754;28;20178;-90
2023/04/25 07:45:01;;;;;;;8.30;2.42;;;;;;;7.60;100.00;100040.97;6102368;28;20083;-90
2023/04/25 07:48:03;;;;;;;7.00;2.30;;;;;;;7.57;100.00;100035.25;6082541;28;20043;-90
2023/04/25 07:51:09;;;;;;;10.25;1.90;;;;;;;7.64;100.00;100046.72;6102547;28;20620;-90
2023/04/25 07:54:21;;;;;;;11.82;2.70;;;;;;;7.73;100.00;100056.34;6106207;28;20395;-89
2023/04/25 07:57:30;;;;;;;8.27;2.75;;;;;;;7.78;100.00;100061.97;6112594;28;20508;-89
2023/04/25 08:00:32;;;;;;;9.00;1.98;;;;;;;7.89;100.00;100061.97;6107770;28;20047;-90
2023/04/25 08:04:01;;;;;;;6.13;2.45;;;;;;;8.03;100.00;100070.44;6118558;28;20059;-88
2023/04/25 08:07:32;;;;;;;12.82;2.83;;;;;;;8.06;100.00;100065.88;6062857;29;20060;-90
2023/04/25 08:10:38;;;;;;;11.13;2.78;;;;;;;7.79;100.00;100061.03;6044939;29;20095;-91
2023/04/25 08:13:40;;;;;;;7.43;2.33;;;;;;;7.34;100.00;100060.94;6049765;29;20530;-91
2023/04/25 08:16:43;;;;;;;14.35;2.42;;;;;;;7.19;100.00;100069.78;6040373;29;20049;-91
2023/04/25 08:19:46;;;;;;;9.95;2.65;;;;;;;7.25;100.00;100082.19;6048652;29;20116;-91
2023/04/25 08:22:58;;;;;;;6.13;1.80;;;;;;;7.34;100.00;100074.63;6055482;29;20079;-91
2023/04/25 08:26:07;;;;;;;8.13;1.60;;;;;;;7.61;100.00;100080.44;6068742;29;20045;-90
2023/04/25 08:29:12;;;;;;;8.10;2.25;;;;;;;7.63;100.00;100081.16;6051801;29;20051;-89
2023/04/25 08:32:15;;;;;;;8.27;2.08;;;;;;;7.55;100.00;100074.81;6068523;29;20047;-91
2023/04/25 08:35:29;;;;;;;6.75;2.05;;;;;;;7.67;100.00;100082.56;6068933;29;20072;-91
2023/04/25 08:38:31;;;;;;;7.78;1.98;;;;;;;8.04;100.00;100092.69;6069333;29;20180;-90
2023/04/25 08:41:36;;;;;;;17.70;2.67;;;;;;;8.49;100.00;100090.97;6068685;29;20052;-91
2023/04/25 08:44:40;;;;;;;6.97;1.95;;;;;;;8.44;100.00;100087.94;6114829;28;20166;-89
2023/04/25 08:47:48;;;;;;;7.75;1.75;;;;;;;8.25;100.00;100096.25;6113133;28;20047;-93
2023/04/25 08:50:53;;;;;;;5.90;1.63;;;;;;;8.11;100.00;100091.31;6115629;29;20091;-91
2023/04/25 08:54:06;;;;;;;5.75;1.77;;;;;;;7.91;100.00;100101.34;6105529;29;20055;-91
2023/04/25 08:57:21;;;;;;;4.65;1.50;;;;;;;7.73;100.00;100115.63;6105581;29;20130;-91
2023/04/25 09:00:24;;;;;;;6.40;2.10;;;;;;;7.34;100.00;100115.00;6112038;29;20070;-90
2023/04/25 09:03:26;;;;;;;9.07;1.83;;;;;;;7.21;100.00;100119.41;6129970;28;20043;-90
2023/04/25 09:06:30;;;;;;;6.65;2.17;;;;;;;7.39;100.00;100127.53;6121717;28;20050;-89
2023/04/25 09:09:33;;;;;;;11.13;3.13;;;;;;;7.68;100.00;100133.97;6094413;28;20467;-91
2023/04/25 09:12:35;;;;;;;10.70;2.10;;;;;;;7.84;100.00;100128.50;6109932;28;20048;-91
2023/04/25 09:15:56;;;;;;;6.15;2.05;;;;;;;7.65;100.00;100134.22;6120340;28;20109;-90
2023/04/25 09:19:45;;;;;;;7.63;2.00;;;;;;;7.36;100.00;100133.72;6105952;28;20063;-91
2023/04/25 09:23:03;;;;;;;6.60;1.88;;;;;;;7.36;100.00;100138.06;5993051;29;20093;-90
2023/04/25 09:26:08;;;;;;;4.15;1.77;;;;;;;7.52;100.00;100139.41;6004581;29;20411;-91
2023/04/25 09:29:10;;;;;;;7.28;2.17;;;;;;;7.80;100.00;100139.16;6004403;29;20050;-90
2023/04/25 09:32:18;;;;;;;4.97;1.50;;;;;;;7.96;100.00;100158.53;5994270;29;20050;-91
2023/04/25 09:35:28;;;;;;;5.63;1.58;;;;;;;8.11;100.00;100143.69;6010403;29;20608;-91
2023/04/25 09:38:46;;;;;;;7.20;1.70;;;;;;;8.20;100.00;100165.38;5996541;29;20061;-91
2023/04/25 09:42:09;;;;;;;7.18;1.30;;;;;;;8.37;100.00;100161.50;6002876;29;20064;-91
2023/04/25 09:45:14;;;;;;;6.90;1.55;;;;;;;8.44;100.00;100161.91;6005738;29;20038;-90
2023/04/25 09:48:20;;;;;;;5.97;1.58;;;;;;;8.41;100.00;100156.03;6004595;29;20092;-92
2023/04/25 09:51:25;;;;;;;7.47;1.42;;;;;;;8.60;100.00;100150.31;6004138;29;20677;-91
2023/04/25 09:54:28;;;;;;;5.63;1.63;;;;;;;9.17;100.00;100160.56;5992215;29;20049;-94
2023/04/25 09:57:44;;;;;;;5.88;1.52;;;;;;;9.49;100.00;100165.75;6006190;29;20554;-92
2023/04/25 10:00:47;;;;;;;4.22;1.55;;;;;;;9.58;100.00;100170.16;6105665;28;20783;-94
2023/04/25 10:04:03;;;;;;;6.32;1.67;;;;;;;9.67;100.00;100166.84;6091489;28;20136;-93
2023/04/25 10:07:30;;;;;;;5.43;1.30;;;;;;;9.83;100.00;100169.00;6102227;28;20114;-92
2023/04/25 10:10:35;;;;;;;7.03;1.40;;;;;;;9.74;100.00;100164.59;6110435;28;20559;-94
2023/04/25 10:13:39;;;;;;;2.95;1.23;;;;;;;9.40;100.00;100187.97;6133684;28;20051;-93
2023/04/25 10:16:42;;;;;;;6.10;1.67;;;;;;;9.09;100.00;100184.38;6132131;28;20039;-94
2023/04/25 10:19:45;;;;;;;6.63;1.80;;;;;;;8.80;100.00;100184.91;6128220;28;20043;-93
2023/04/25 10:22:56;;;;;;;4.47;1.40;;;;;;;8.56;100.00;100185.00;6125132;28;20067;-93
2023/04/25 10:25:59;;;;;;;7.18;1.65;;;;;;;8.30;100.00;100189.53;6125361;28;20122;-93
2023/04/25 10:29:03;;;;;;;5.10;1.50;;;;;;;8.26;100.00;100195.84;6122084;28;20490;-94
2023/04/25 10:32:05;;;;;;;7.32;1.73;;;;;;;8.26;100.00;100206.16;6125144;28;20098;-94
2023/04/25 10:35:35;;;;;;;7.78;1.60;;;;;;;8.37;100.00;100202.78;6124124;28;20051;-94
2023/04/25 10:38:38;;;;;;;3.63;1.80;;;;;;;8.72;100.00;100192.41;6122532;28;20503;-93
2023/04/25 10:42:07;;;;;;;5.22;1.80;;;;;;;9.16;100.00;100202.81;6100940;28;20043;-94
2023/04/25 10:45:11;;;;;;;4.72;1.88;;;;;;;9.17;100.00;100204.47;6103204;28;20079;-94
2023/04/25 10:48:30;;;;;;;5.68;1.83;;;;;;;9.27;100.00;100211.38;6136021;28;20043;-94
2023/04/25 10:51:33;;;;;;;5.65;1.73;;;;;;;9.22;100.00;100215.25;6135501;28;20051;-93
2023/04/25 10:54:56;;;;;;;4.03;1.42;;;;;;;9.03;100.00;100208.13;6117223;28;20047;-92
2023/04/25 10:57:58;;;;;;;7.25;1.83;;;;;;;8.83;100.00;100207.88;6120880;28;20498;-93
2023/04/25 11:01:01;;;;;;;7.80;2.47;;;;;;;8.64;100.00;100212.81;6105654;28;20051;-94
2023/04/25 11:04:03;;;;;;;4.90;1.58;;;;;;;8.41;100.00;100207.63;6115112;28;20498;-94
2023/04/25 11:07:30;;;;;;;5.03;1.52;;;;;;;8.15;100.00;100206.97;6102401;28;20036;-95
2023/04/25 11:10:39;;;;;;;5.30;1.75;;;;;;;7.90;100.00;100204.53;6127834;28;20397;-95
2023/04/25 11:13:41;;;;;;;5.03;1.60;;;;;;;8.26;100.00;100198.44;6105190;28;20051;-96
2023/04/25 11:16:44;;;;;;;6.07;1.90;;;;;;;8.94;100.00;100208.81;6126295;28;20039;-94
2023/04/25 11:19:49;;;;;;;6.30;1.63;;;;;;;9.50;100.00;100206.16;6104163;28;20051;-93
2023/04/25 11:22:52;;;;;;;6.75;1.75;;;;;;;9.73;100.00;100214.63;6113629;28;20043;-95
2023/04/25 11:25:54;;;;;;;6.03;1.73;;;;;;;9.72;100.00;100222.53;6111921;28;20056;-93
2023/04/25 11:29:02;;;;;;;4.68;1.52;;;;;;;9.53;100.00;100212.81;6104878;28;20506;-94
2023/04/25 11:32:04;;;;;;;10.48;1.55;;;;;;;9.44;100.00;100224.69;6125514;28;20074;-94
2023/04/25 11:35:07;;;;;;;7.78;1.92;;;;;;;9.26;100.00;100229.56;6099516;28;20047;-93
2023/04/25 11:38:10;;;;;;;4.18;1.67;;;;;;;8.95;100.00;100238.88;6107820;28;20530;-93
2023/04/25 11:41:13;;;;;;;6.32;1.38;;;;;;;8.44;100.00;100244.44;6133407;28;20414;-93
2023/04/25 11:44:17;;;;;;;7.82;2.22;;;;;;;8.12;100.00;100260.50;6107029;28;20690;-95
2023/04/25 11:47:18;;;;;;;6.65;1.50;;;;;;;7.80;100.00;100267.97;6113868;28;20047;-94
2023/04/25 11:50:21;;;;;;;5.70;1.83;;;;;;;7.67;100.00;100268.84;6130094;28;20497;-95
2023/04/25 11:53:24;;;;;;;4.05;1.52;;;;;;;7.68;100.00;100269.69;6109215;28;20044;-92
2023/04/25 11:56:27;;;;;;;3.65;1.48;;;;;;;7.82;100.00;100248.09;6122969;28;20106;-93
2023/04/25 11:59:29;;;;;;;4.88;1.65;;;;;;;8.33;100.00;100248.63;6128400;28;20063;-94
2023/04/25 12:02:31;;;;;;;5.10;1.60;;;;;;;8.98;100.00;100248.97;6130610;28;20374;-93
2023/04/25 12:05:33;;;;;;;5.00;1.50;;;;;;;9.48;100.00;100257.94;6127375;28;20051;-93
2023/04/25 12:08:36;;;;;;;9.02;1.95;;;;;;;9.55;100.00;100267.78;6106639;28;20506;-94
2023/04/25 12:11:48;;;;;;;4.60;1.58;;;;;;;9.55;100.00;100263.44;6126302;28;20052;-94
2023/04/25 12:14:51;;;;;;;8.32;1.92;;;;;;;9.06;100.00;100273.22;6123327;28;20044;-94
2023/04/25 12:17:54;;;;;;;5.72;1.73;;;;;;;8.83;100.00;100275.00;6102607;28;20044;-94
2023/04/25 12:20:58;;;;;;;2.78;1.38;;;;;;;9.06;100.00;100267.25;6125351;28;20070;-94
2023/04/25 12:24:14;;;;;;;1.73;0.93;;;;;;;9.42;100.00;100267.94;6129674;28;20047;-96
2023/04/25 12:27:18;;;;;;;2.70;1.05;;;;;;;9.53;100.00;100265.31;6127939;28;20070;-96
2023/04/25 12:30:21;;;;;;;2.65;1.10;;;;;;;10.01;100.00;100275.28;6113038;28;20047;-96
2023/04/25 12:33:24;;;;;;;1.92;0.90;;;;;;;10.76;100.00;100273.50;6113861;28;20046;-95
2023/04/25 12:36:26;;;;;;;3.47;1.20;;;;;;;11.14;100.00;100284.97;6125610;28;20048;-96
2023/04/25 12:39:28;;;;;;;7.03;2.25;;;;;;;10.94;100.00;100277.13;6110729;28;20047;-95
2023/04/25 12:42:30;;;;;;;4.88;1.20;;;;;;;10.45;100.00;100268.28;6128215;28;20040;-96
2023/04/25 12:45:33;;;;;;;3.38;1.38;;;;;;;9.90;100.00;100286.47;6129340;28;20039;-94
2023/04/25 12:48:35;;;;;;;2.13;1.15;;;;;;;9.37;100.00;100288.16;6124507;28;20046;-95
2023/04/25 12:51:37;;;;;;;5.32;1.35;;;;;;;8.94;100.00;100273.34;6112243;28;20129;-94
2023/04/25 12:54:39;;;;;;;2.70;1.08;;;;;;;8.67;100.00;100299.47;6107650;28;20039;-95
2023/04/25 12:57:41;;;;;;;3.42;1.00;;;;;;;8.26;100.00;100286.09;6129299;28;20808;-94
2023/04/25 13:00:44;;;;;;;4.25;1.13;;;;;;;8.10;100.00;100293.28;6112074;28;20659;-94
2023/04/25 13:03:47;;;;;;;5.20;1.20;;;;;;;8.02;100.00;100286.13;6128514;28;20413;-94
2023/04/25 13:06:50;;;;;;;2.30;0.90;;;;;;;7.90;100.00;100305.88;6122056;28;20195;-95
2023/04/25 13:09:52;;;;;;;1.48;0.80;;;;;;;7.65;100.00;100319.69;6110887;28;20402;-94
2023/04/25 13:12:54;;;;;;;3.70;1.10;;;;;;;7.40;100.00;100317.13;6145180;28;20505;-94
2023/04/25 13:15:56;;;;;;;5.18;1.25;;;;;;;7.02;100.00;100320.59;6130252;28;20046;-95
2023/04/25 13:18:58;;;;;;;3.72;1.23;;;;;;;6.82;100.00;100316.78;6125331;28;20051;-94
2023/04/25 13:22:00;;;;;;;6.72;1.25;;;;;;;6.78;100.00;100297.31;6122604;28;20044;-94
2023/04/25 13:25:04;;;;;;;2.28;1.25;;;;;;;6.98;100.00;100296.81;6107179;28;20058;-94
2023/04/25 13:28:06;;;;;;;4.22;1.70;;;;;;;7.35;100.00;100299.44;6132326;28;20047;-94
2023/04/25 13:31:08;;;;;;;4.43;1.25;;;;;;;7.98;100.00;100298.41;6132266;28;20039;-94
2023/04/25 13:34:10;;;;;;;3.35;1.38;;;;;;;8.52;100.00;100301.44;6128736;28;20047;-95
2023/04/25 13:37:11;;;;;;;2.35;1.23;;;;;;;9.03;100.00;100299.28;6132376;28;20051;-94
2023/04/25 13:40:13;;;;;;;3.63;1.25;;;;;;;9.35;100.00;100297.78;6140293;28;20524;-94
2023/04/25 13:43:16;;;;;;;3.40;1.30;;;;;;;9.62;100.00;100303.38;6108491;29;20157;-94
2023/04/25 13:46:18;;;;;;;3.85;1.17;;;;;;;9.93;100.00;100296.56;6141417;28;20054;-94
2023/04/25 13:49:22;;;;;;;2.28;1.20;;;;;;;10.59;100.00;100302.56;6129734;28;20070;-94
2023/04/25 13:52:25;;;;;;;7.25;1.33;;;;;;;11.28;100.00;100296.72;6112640;28;20056;-95
2023/04/25 13:55:27;;;;;;;5.82;1.50;;;;;;;11.01;100.00;100307.69;6122169;28;20043;-94
2023/04/25 13:58:29;;;;;;;3.30;1.30;;;;;;;10.59;100.00;100302.56;6117957;28;20051;-95
2023/04/25 14:01:33;;;;;;;5.18;1.50;;;;;;;10.20;100.00;100295.28;6124347;28;20075;-95
2023/04/25 14:04:36;;;;;;;4.72;1.50;;;;;;;9.70;100.00;100310.50;6138787;28;20202;-94
2023/04/25 14:07:38;;;;;;;4.40;1.30;;;;;;;8.91;100.00;100325.22;6104432;28;20118;-96
2023/04/25 14:10:40;;;;;;;4.78;1.20;;;;;;;7.70;100.00;100319.34;6123987;28;20043;-92
2023/04/25 14:13:42;;;;;;;2.45;2.20;;;;;;;6.70;100.00;100310.69;6129301;28;20043;-95
2023/04/25 14:16:47;;;;;;;2.20;1.10;;;;;;;6.60;100.00;100307.91;6119761;28;20130;-95
2023/04/25 14:19:50;;;;;;;3.25;1.13;;;;;;;7.58;100.00;100313.31;6117243;28;20050;-96
2023/04/25 14:22:55;;;;;;;4.70;1.48;;;;;;;8.44;100.00;100299.44;6173375;23;20051;-96
2023/04/25 14:26:05;;;;;;;2.15;1.40;;;;;;;8.83;100.00;100300.81;6104252;29;20067;-96